sensor_id;sensor_type;location;lat;lon;timestamp;pressure;altitude;pressure_sealevel;temperature;humidity
18697;BME280;22617;43.690;27.956;2022-09-09T00:01:49;99108.91;;;17.88;77.09
18697;BME280;22617;43.690;27.956;2022-09-09T00:07:07;99106.81;;;17.98;76.60
18697;BME280;22617;43.690;27.956;2022-09-09T00:12:19;99105.69;;;18.05;76.31
18697;BME280;22617;43.690;27.956;2022-09-09T00:17:32;99110.38;;;17.97;76.68
18697;BME280;22617;43.690;27.956;2022-09-09T00:22:43;99107.88;;;17.92;76.50
18697;BME280;22617;43.690;27.956;2022-09-09T00:27:51;99099.84;;;17.95;76.20
18697;BME280;22617;43.690;27.956;2022-09-09T00:32:58;99097.06;;;18.00;75.80
18697;BME280;22617;43.690;27.956;2022-09-09T00:38:10;99097.28;;;17.94;76.15
18697;BME280;22617;43.690;27.956;2022-09-09T00:43:27;99097.84;;;18.03;76.20
18697;BME280;22617;43.690;27.956;2022-09-09T00:48:36;99085.09;;;17.90;76.56
18697;BME280;22617;43.690;27.956;2022-09-09T00:54:02;99092.03;;;17.94;76.05
18697;BME280;22617;43.690;27.956;2022-09-09T00:59:22;99097.28;;;17.94;76.37
18697;BME280;22617;43.690;27.956;2022-09-09T01:04:34;99092.53;;;17.77;76.50
18697;BME280;22617;43.690;27.956;2022-09-09T01:09:50;99085.88;;;17.65;76.71
18697;BME280;22617;43.690;27.956;2022-09-09T01:15:03;99085.53;;;17.76;76.57
18697;BME280;22617;43.690;27.956;2022-09-09T01:20:20;99095.00;;;17.83;76.23
18697;BME280;22617;43.690;27.956;2022-09-09T01:31:28;99097.06;;;17.73;76.44
18697;BME280;22617;43.690;27.956;2022-09-09T01:36:37;99095.59;;;17.63;76.96
18697;BME280;22617;43.690;27.956;2022-09-09T01:41:43;99087.59;;;17.66;76.75
18697;BME280;22617;43.690;27.956;2022-09-09T01:46:50;99081.28;;;17.72;76.78
18697;BME280;22617;43.690;27.956;2022-09-09T01:51:56;99081.16;;;17.75;76.35
18697;BME280;22617;43.690;27.956;2022-09-09T01:57:15;99077.06;;;17.66;76.49
18697;BME280;22617;43.690;27.956;2022-09-09T02:02:26;99085.03;;;17.65;76.39
18697;BME280;22617;43.690;27.956;2022-09-09T02:07:48;99082.19;;;17.71;76.44
18697;BME280;22617;43.690;27.956;2022-09-09T02:13:09;99085.59;;;17.74;76.25
18697;BME280;22617;43.690;27.956;2022-09-09T02:18:17;99093.44;;;17.76;76.04
18697;BME280;22617;43.690;27.956;2022-09-09T02:23:27;99087.53;;;17.69;76.41
18697;BME280;22617;43.690;27.956;2022-09-09T02:28:34;99088.50;;;17.65;76.59
18697;BME280;22617;43.690;27.956;2022-09-09T02:33:52;99085.03;;;17.65;77.02
18697;BME280;22617;43.690;27.956;2022-09-09T02:38:57;99079.25;;;17.80;76.38
18697;BME280;22617;43.690;27.956;2022-09-09T02:44:10;99074.94;;;17.77;76.61
18697;BME280;22617;43.690;27.956;2022-09-09T02:49:19;99086.75;;;17.94;76.40
18697;BME280;22617;43.690;27.956;2022-09-09T02:54:27;99084.44;;;17.83;77.08
18697;BME280;22617;43.690;27.956;2022-09-09T02:59:38;99088.16;;;17.76;76.76
18697;BME280;22617;43.690;27.956;2022-09-09T03:04:43;99082.25;;;17.69;77.26
18697;BME280;22617;43.690;27.956;2022-09-09T03:09:48;99086.72;;;17.66;77.08
18697;BME280;22617;43.690;27.956;2022-09-09T03:14:53;99082.44;;;17.63;77.09
18697;BME280;22617;43.690;27.956;2022-09-09T03:19:58;99085.81;;;17.67;77.01
18697;BME280;22617;43.690;27.956;2022-09-09T03:25:03;99083.34;;;17.62;77.32
18697;BME280;22617;43.690;27.956;2022-09-09T03:30:11;99079.84;;;17.62;77.91
18697;BME280;22617;43.690;27.956;2022-09-09T03:35:17;99077.06;;;17.66;78.32
18697;BME280;22617;43.690;27.956;2022-09-09T03:40:21;99082.00;;;17.77;78.26
18697;BME280;22617;43.690;27.956;2022-09-09T03:45:26;99081.31;;;17.70;78.39
18697;BME280;22617;43.690;27.956;2022-09-09T03:50:30;99081.31;;;17.70;78.45
18697;BME280;22617;43.690;27.956;2022-09-09T03:55:34;99086.19;;;17.84;78.23
18697;BME280;22617;43.690;27.956;2022-09-09T04:00:40;99080.06;;;17.82;78.47
18697;BME280;22617;43.690;27.956;2022-09-09T04:05:48;99083.75;;;17.76;78.71
18697;BME280;22617;43.690;27.956;2022-09-09T04:10:53;99086.84;;;17.89;78.76
18697;BME280;22617;43.690;27.956;2022-09-09T04:16:04;99088.59;;;17.90;79.08
18697;BME280;22617;43.690;27.956;2022-09-09T04:21:09;99089.13;;;18.01;79.10
18697;BME280;22617;43.690;27.956;2022-09-09T04:26:15;99096.31;;;18.22;78.81
18697;BME280;22617;43.690;27.956;2022-09-09T04:31:22;99098.88;;;18.25;78.90
18697;BME280;22617;43.690;27.956;2022-09-09T04:36:30;99095.00;;;18.36;79.07
18697;BME280;22617;43.690;27.956;2022-09-09T04:41:37;99101.28;;;18.58;78.61
18697;BME280;22617;43.690;27.956;2022-09-09T04:46:42;99093.97;;;18.66;78.94
18697;BME280;22617;43.690;27.956;2022-09-09T04:51:48;99086.41;;;18.80;78.68
18697;BME280;22617;43.690;27.956;2022-09-09T04:56:52;99091.97;;;18.97;78.55
18697;BME280;22617;43.690;27.956;2022-09-09T05:01:58;99084.34;;;19.13;78.29
18697;BME280;22617;43.690;27.956;2022-09-09T05:07:03;99089.88;;;19.29;78.12
18697;BME280;22617;43.690;27.956;2022-09-09T05:12:07;99081.22;;;19.48;78.32
18697;BME280;22617;43.690;27.956;2022-09-09T05:17:16;99088.53;;;19.65;77.70
18697;BME280;22617;43.690;27.956;2022-09-09T05:22:20;99090.31;;;19.86;77.64
18697;BME280;22617;43.690;27.956;2022-09-09T05:27:27;99089.59;;;20.05;76.94
18697;BME280;22617;43.690;27.956;2022-09-09T05:32:32;99081.94;;;20.19;76.48
18697;BME280;22617;43.690;27.956;2022-09-09T05:37:37;99081.25;;;20.35;76.41
18697;BME280;22617;43.690;27.956;2022-09-09T05:42:42;99084.97;;;20.52;75.54
18697;BME280;22617;43.690;27.956;2022-09-09T05:47:51;99070.06;;;20.69;74.94
18697;BME280;22617;43.690;27.956;2022-09-09T05:52:56;99073.97;;;20.81;73.76
18697;BME280;22617;43.690;27.956;2022-09-09T05:58:00;99072.28;;;20.99;72.97
18697;BME280;22617;43.690;27.956;2022-09-09T06:03:05;99069.31;;;21.25;73.34
18697;BME280;22617;43.690;27.956;2022-09-09T06:08:10;99080.50;;;21.31;71.17
18697;BME280;22617;43.690;27.956;2022-09-09T06:13:13;99078.72;;;21.51;70.56
18697;BME280;22617;43.690;27.956;2022-09-09T06:18:19;99079.63;;;21.68;67.56
18697;BME280;22617;43.690;27.956;2022-09-09T06:23:22;99080.47;;;21.88;67.51
18697;BME280;22617;43.690;27.956;2022-09-09T06:28:26;99094.69;;;22.05;66.85
18697;BME280;22617;43.690;27.956;2022-09-09T06:33:33;99115.72;;;22.27;64.40
18697;BME280;22617;43.690;27.956;2022-09-09T06:38:37;99106.59;;;22.50;64.48
18697;BME280;22617;43.690;27.956;2022-09-09T06:43:42;99107.31;;;22.53;62.23
18697;BME280;22617;43.690;27.956;2022-09-09T06:48:48;99102.66;;;22.76;60.70
18697;BME280;22617;43.690;27.956;2022-09-09T06:53:53;99098.03;;;22.96;61.26
18697;BME280;22617;43.690;27.956;2022-09-09T06:59:00;99098.50;;;23.20;60.29
18697;BME280;22617;43.690;27.956;2022-09-09T07:04:08;99083.94;;;23.27;58.59
18697;BME280;22617;43.690;27.956;2022-09-09T07:09:15;99081.06;;;23.48;58.64
18697;BME280;22617;43.690;27.956;2022-09-09T07:14:22;99080.84;;;23.68;60.32
18697;BME280;22617;43.690;27.956;2022-09-09T07:19:34;99082.78;;;24.11;58.59
18697;BME280;22617;43.690;27.956;2022-09-09T07:24:40;99090.50;;;24.31;57.03
18697;BME280;22617;43.690;27.956;2022-09-09T07:29:44;99085.94;;;24.33;55.38
18697;BME280;22617;43.690;27.956;2022-09-09T07:34:50;99086.47;;;24.24;55.16
18697;BME280;22617;43.690;27.956;2022-09-09T07:39:55;99085.41;;;24.57;54.87
18697;BME280;22617;43.690;27.956;2022-09-09T07:44:59;99083.34;;;24.62;54.60
18697;BME280;22617;43.690;27.956;2022-09-09T07:50:06;99083.78;;;24.84;55.46
18697;BME280;22617;43.690;27.956;2022-09-09T07:55:10;99085.91;;;24.93;56.43
18697;BME280;22617;43.690;27.956;2022-09-09T08:00:14;99099.06;;;25.39;56.16
18697;BME280;22617;43.690;27.956;2022-09-09T08:05:26;99097.25;;;25.39;55.89
18697;BME280;22617;43.690;27.956;2022-09-09T08:10:30;99088.75;;;25.47;53.84
18697;BME280;22617;43.690;27.956;2022-09-09T08:15:34;99090.31;;;25.65;53.21
18697;BME280;22617;43.690;27.956;2022-09-09T08:20:40;99086.84;;;25.77;52.33
18697;BME280;22617;43.690;27.956;2022-09-09T08:25:44;99082.34;;;25.78;53.20
18697;BME280;22617;43.690;27.956;2022-09-09T08:30:48;99067.84;;;25.82;53.24
18697;BME280;22617;43.690;27.956;2022-09-09T08:35:57;99066.63;;;26.00;53.04
18697;BME280;22617;43.690;27.956;2022-09-09T08:41:12;99066.41;;;26.17;53.72
18697;BME280;22617;43.690;27.956;2022-09-09T08:46:26;99066.38;;;26.44;54.55
18697;BME280;22617;43.690;27.956;2022-09-09T08:51:37;99051.66;;;26.64;53.14
18697;BME280;22617;43.690;27.956;2022-09-09T08:56:42;99046.06;;;26.67;55.08
18697;BME280;22617;43.690;27.956;2022-09-09T09:02:07;99041.75;;;27.04;55.71
18697;BME280;22617;43.690;27.956;2022-09-09T09:07:30;99054.88;;;26.81;52.88
18697;BME280;22617;43.690;27.956;2022-09-09T09:12:41;99038.44;;;26.87;52.71
18697;BME280;22617;43.690;27.956;2022-09-09T09:17:49;99053.44;;;26.90;54.52
18697;BME280;22617;43.690;27.956;2022-09-09T09:22:59;99056.28;;;27.12;53.34
18697;BME280;22617;43.690;27.956;2022-09-09T09:28:13;99068.16;;;26.96;52.93
18697;BME280;22617;43.690;27.956;2022-09-09T09:33:25;99076.09;;;27.22;50.54
18697;BME280;22617;43.690;27.956;2022-09-09T09:38:35;99076.06;;;27.35;52.15
18697;BME280;22617;43.690;27.956;2022-09-09T09:44:01;99060.75;;;27.50;52.74
18697;BME280;22617;43.690;27.956;2022-09-09T09:49:09;99046.09;;;27.30;51.04
18697;BME280;22617;43.690;27.956;2022-09-09T09:54:24;99040.09;;;27.26;49.30
18697;BME280;22617;43.690;27.956;2022-09-09T09:59:35;99039.59;;;26.96;50.66
18697;BME280;22617;43.690;27.956;2022-09-09T10:05:08;99039.63;;;27.45;48.78
18697;BME280;22617;43.690;27.956;2022-09-09T10:10:23;99039.25;;;27.26;49.39
18697;BME280;22617;43.690;27.956;2022-09-09T10:15:40;99043.44;;;26.79;46.55
18697;BME280;22617;43.690;27.956;2022-09-09T10:20:55;99043.66;;;27.27;47.56
18697;BME280;22617;43.690;27.956;2022-09-09T10:26:16;99044.16;;;27.57;47.44
18697;BME280;22617;43.690;27.956;2022-09-09T10:31:27;99033.06;;;27.13;48.92
18697;BME280;22617;43.690;27.956;2022-09-09T10:36:32;99045.41;;;27.64;45.70
18697;BME280;22617;43.690;27.956;2022-09-09T10:41:45;99038.28;;;27.27;46.67
18697;BME280;22617;43.690;27.956;2022-09-09T10:47:06;99027.88;;;27.35;47.94
18697;BME280;22617;43.690;27.956;2022-09-09T10:52:18;99027.81;;;27.11;46.26
18697;BME280;22617;43.690;27.956;2022-09-09T10:57:31;99028.31;;;27.29;46.96
18697;BME280;22617;43.690;27.956;2022-09-09T11:02:38;99035.69;;;26.62;43.42
18697;BME280;22617;43.690;27.956;2022-09-09T11:07:47;99023.28;;;27.24;46.72
18697;BME280;22617;43.690;27.956;2022-09-09T11:13:00;99028.66;;;26.61;44.46
18697;BME280;22617;43.690;27.956;2022-09-09T11:18:06;99025.69;;;27.04;45.08
18697;BME280;22617;43.690;27.956;2022-09-09T11:23:18;99032.84;;;27.16;45.10
18697;BME280;22617;43.690;27.956;2022-09-09T11:28:34;99036.66;;;27.37;45.72
18697;BME280;22617;43.690;27.956;2022-09-09T11:34:08;99009.84;;;27.13;48.55
18697;BME280;22617;43.690;27.956;2022-09-09T11:44:51;99019.69;;;26.75;46.16
18697;BME280;22617;43.690;27.956;2022-09-09T11:50:06;99019.66;;;26.50;49.04
18697;BME280;22617;43.690;27.956;2022-09-09T11:55:11;99017.53;;;26.67;50.98
18697;BME280;22617;43.690;27.956;2022-09-09T12:00:34;99014.44;;;26.86;44.83
18697;BME280;22617;43.690;27.956;2022-09-09T12:05:41;99006.53;;;26.20;48.16
18697;BME280;22617;43.690;27.956;2022-09-09T12:10:55;99001.47;;;26.02;47.48
18697;BME280;22617;43.690;27.956;2022-09-09T12:16:01;99013.41;;;26.24;47.13
18697;BME280;22617;43.690;27.956;2022-09-09T12:21:13;99008.59;;;26.29;49.33
18697;BME280;22617;43.690;27.956;2022-09-09T12:26:29;98999.38;;;26.20;51.31
18697;BME280;22617;43.690;27.956;2022-09-09T12:31:41;98983.50;;;26.04;54.25
18697;BME280;22617;43.690;27.956;2022-09-09T12:36:52;98989.59;;;25.67;50.81
18697;BME280;22617;43.690;27.956;2022-09-09T12:41:58;98987.03;;;25.66;49.16
18697;BME280;22617;43.690;27.956;2022-09-09T12:47:03;98970.69;;;25.97;48.01
18697;BME280;22617;43.690;27.956;2022-09-09T12:52:11;98971.81;;;25.80;51.00
18697;BME280;22617;43.690;27.956;2022-09-09T12:57:17;98950.69;;;26.55;51.71
18697;BME280;22617;43.690;27.956;2022-09-09T13:02:25;98945.88;;;26.60;52.65
18697;BME280;22617;43.690;27.956;2022-09-09T13:07:30;98946.41;;;26.52;51.68
18697;BME280;22617;43.690;27.956;2022-09-09T13:12:33;98954.47;;;25.73;52.47
18697;BME280;22617;43.690;27.956;2022-09-09T13:17:39;98949.06;;;25.87;51.77
18697;BME280;22617;43.690;27.956;2022-09-09T13:22:43;98955.09;;;26.03;53.88
18697;BME280;22617;43.690;27.956;2022-09-09T13:27:53;98950.03;;;26.26;53.13
18697;BME280;22617;43.690;27.956;2022-09-09T13:33:18;98941.75;;;26.16;54.15
18697;BME280;22617;43.690;27.956;2022-09-09T13:38:24;98939.50;;;26.10;53.25
18697;BME280;22617;43.690;27.956;2022-09-09T13:43:31;98925.03;;;25.87;52.15
18697;BME280;22617;43.690;27.956;2022-09-09T13:48:36;98939.19;;;25.22;52.65
18697;BME280;22617;43.690;27.956;2022-09-09T13:53:40;98929.47;;;25.21;51.01
18697;BME280;22617;43.690;27.956;2022-09-09T13:58:43;98943.31;;;25.13;51.52
18697;BME280;22617;43.690;27.956;2022-09-09T14:03:48;98938.88;;;25.26;55.06
18697;BME280;22617;43.690;27.956;2022-09-09T14:08:52;98935.00;;;25.44;56.49
18697;BME280;22617;43.690;27.956;2022-09-09T14:13:56;98943.28;;;25.27;55.68
18697;BME280;22617;43.690;27.956;2022-09-09T14:19:02;98942.44;;;24.84;57.09
18697;BME280;22617;43.690;27.956;2022-09-09T14:24:05;98936.00;;;24.88;57.31
18697;BME280;22617;43.690;27.956;2022-09-09T14:29:09;98928.53;;;25.07;56.03
18697;BME280;22617;43.690;27.956;2022-09-09T14:34:13;98939.13;;;24.95;58.76
18697;BME280;22617;43.690;27.956;2022-09-09T14:39:17;98930.75;;;25.28;57.88
18697;BME280;22617;43.690;27.956;2022-09-09T14:44:21;98927.97;;;25.02;58.39
18697;BME280;22617;43.690;27.956;2022-09-09T14:49:26;98925.31;;;24.74;59.81
18697;BME280;22617;43.690;27.956;2022-09-09T14:54:29;98936.56;;;24.79;58.74
18697;BME280;22617;43.690;27.956;2022-09-09T14:59:32;98921.69;;;24.47;59.92
18697;BME280;22617;43.690;27.956;2022-09-09T15:04:38;98912.06;;;24.30;60.04
18697;BME280;22617;43.690;27.956;2022-09-09T15:09:42;98910.78;;;24.07;61.47
18697;BME280;22617;43.690;27.956;2022-09-09T15:14:45;98914.94;;;23.97;62.77
18697;BME280;22617;43.690;27.956;2022-09-09T15:19:51;98921.88;;;23.70;64.61
18697;BME280;22617;43.690;27.956;2022-09-09T15:24:55;98914.56;;;23.59;64.24
18697;BME280;22617;43.690;27.956;2022-09-09T15:29:58;98912.31;;;23.52;63.75
18697;BME280;22617;43.690;27.956;2022-09-09T15:35:06;98906.72;;;23.40;64.57
18697;BME280;22617;43.690;27.956;2022-09-09T15:40:10;98913.34;;;23.33;64.74
18697;BME280;22617;43.690;27.956;2022-09-09T15:45:14;98905.97;;;23.07;65.77
18697;BME280;22617;43.690;27.956;2022-09-09T15:50:19;98895.44;;;23.06;66.76
18697;BME280;22617;43.690;27.956;2022-09-09T15:55:23;98891.06;;;22.73;66.07
18697;BME280;22617;43.690;27.956;2022-09-09T16:00:27;98898.88;;;22.59;66.63
18697;BME280;22617;43.690;27.956;2022-09-09T16:05:32;98897.94;;;22.44;68.41
18697;BME280;22617;43.690;27.956;2022-09-09T16:10:36;98906.78;;;22.28;69.13
18697;BME280;22617;43.690;27.956;2022-09-09T16:15:39;98903.22;;;22.11;69.90
18697;BME280;22617;43.690;27.956;2022-09-09T16:20:53;98900.31;;;22.16;69.68
18697;BME280;22617;43.690;27.956;2022-09-09T16:25:57;98916.44;;;21.96;69.69
18697;BME280;22617;43.690;27.956;2022-09-09T16:31:07;98920.47;;;22.03;69.72
18697;BME280;22617;43.690;27.956;2022-09-09T16:36:15;98915.84;;;21.89;70.51
18697;BME280;22617;43.690;27.956;2022-09-09T16:41:19;98920.31;;;21.71;71.70
18697;BME280;22617;43.690;27.956;2022-09-09T16:46:23;98912.25;;;21.73;71.75
18697;BME280;22617;43.690;27.956;2022-09-09T16:51:30;98915.69;;;21.58;72.59
18697;BME280;22617;43.690;27.956;2022-09-09T16:56:35;98915.59;;;21.59;72.74
18697;BME280;22617;43.690;27.956;2022-09-09T17:01:41;98928.41;;;21.51;73.27
18697;BME280;22617;43.690;27.956;2022-09-09T17:06:47;98936.34;;;21.51;73.61
18697;BME280;22617;43.690;27.956;2022-09-09T17:11:53;98937.16;;;21.35;74.11
18697;BME280;22617;43.690;27.956;2022-09-09T17:16:57;98938.22;;;21.49;73.86
18697;BME280;22617;43.690;27.956;2022-09-09T17:22:22;98945.34;;;21.30;74.90
18697;BME280;22617;43.690;27.956;2022-09-09T17:27:28;98939.13;;;21.31;75.46
18697;BME280;22617;43.690;27.956;2022-09-09T17:32:33;98951.16;;;21.38;75.61
18697;BME280;22617;43.690;27.956;2022-09-09T17:37:39;98951.38;;;21.34;76.34
18697;BME280;22617;43.690;27.956;2022-09-09T17:42:42;98947.72;;;21.36;76.52
18697;BME280;22617;43.690;27.956;2022-09-09T17:47:45;98959.56;;;21.29;77.12
18697;BME280;22617;43.690;27.956;2022-09-09T17:52:51;98962.97;;;21.31;77.69
18697;BME280;22617;43.690;27.956;2022-09-09T17:57:55;98962.84;;;21.34;78.13
18697;BME280;22617;43.690;27.956;2022-09-09T18:02:58;98966.47;;;21.50;77.98
18697;BME280;22617;43.690;27.956;2022-09-09T18:08:03;98969.13;;;21.50;78.35
18697;BME280;22617;43.690;27.956;2022-09-09T18:13:07;98974.06;;;21.39;79.01
18697;BME280;22617;43.690;27.956;2022-09-09T18:18:11;98963.78;;;21.33;80.04
18697;BME280;22617;43.690;27.956;2022-09-09T18:23:16;98961.53;;;21.43;80.33
18697;BME280;22617;43.690;27.956;2022-09-09T18:28:20;98966.34;;;21.35;81.11
18697;BME280;22617;43.690;27.956;2022-09-09T18:33:34;98972.50;;;21.35;81.76
18697;BME280;22617;43.690;27.956;2022-09-09T18:38:40;98972.00;;;21.46;81.12
18697;BME280;22617;43.690;27.956;2022-09-09T18:43:44;98974.47;;;21.49;81.53
18697;BME280;22617;43.690;27.956;2022-09-09T18:48:48;98987.50;;;21.36;82.21
18697;BME280;22617;43.690;27.956;2022-09-09T18:53:55;98983.03;;;21.37;82.08
18697;BME280;22617;43.690;27.956;2022-09-09T18:59:00;98979.47;;;21.38;82.27
18697;BME280;22617;43.690;27.956;2022-09-09T19:04:06;98980.53;;;21.52;81.83
18697;BME280;22617;43.690;27.956;2022-09-09T19:09:12;98987.75;;;21.49;81.94
18697;BME280;22617;43.690;27.956;2022-09-09T19:14:16;98991.16;;;21.34;81.94
18697;BME280;22617;43.690;27.956;2022-09-09T19:19:22;98984.56;;;21.42;81.91
18697;BME280;22617;43.690;27.956;2022-09-09T19:24:28;98968.47;;;21.45;82.22
18697;BME280;22617;43.690;27.956;2022-09-09T19:29:33;98969.69;;;21.57;82.50
18697;BME280;22617;43.690;27.956;2022-09-09T19:34:37;98962.81;;;21.53;82.06
18697;BME280;22617;43.690;27.956;2022-09-09T19:39:42;98958.16;;;21.39;82.65
18697;BME280;22617;43.690;27.956;2022-09-09T19:44:47;98969.63;;;21.40;83.03
18697;BME280;22617;43.690;27.956;2022-09-09T19:49:51;98960.28;;;21.50;82.81
18697;BME280;22617;43.690;27.956;2022-09-09T19:54:55;98945.53;;;21.44;82.29
18697;BME280;22617;43.690;27.956;2022-09-09T19:59:59;98944.19;;;21.36;82.96
18697;BME280;22617;43.690;27.956;2022-09-09T20:05:13;98944.06;;;21.39;82.76
18697;BME280;22617;43.690;27.956;2022-09-09T20:10:18;98944.59;;;21.45;82.76
18697;BME280;22617;43.690;27.956;2022-09-09T20:15:21;98943.03;;;21.41;83.19
18697;BME280;22617;43.690;27.956;2022-09-09T20:20:25;98945.63;;;21.43;82.96
18697;BME280;22617;43.690;27.956;2022-09-09T20:25:34;98946.72;;;21.39;83.02
18697;BME280;22617;43.690;27.956;2022-09-09T20:30:38;98952.09;;;21.37;82.98
18697;BME280;22617;43.690;27.956;2022-09-09T20:35:41;98954.00;;;21.52;82.64
18697;BME280;22617;43.690;27.956;2022-09-09T20:40:46;98959.53;;;21.48;82.73
18697;BME280;22617;43.690;27.956;2022-09-09T20:45:50;98958.91;;;21.60;82.18
18697;BME280;22617;43.690;27.956;2022-09-09T20:50:55;98959.19;;;21.54;82.60
18697;BME280;22617;43.690;27.956;2022-09-09T20:56:01;98956.66;;;21.52;82.22
18697;BME280;22617;43.690;27.956;2022-09-09T21:01:05;98955.78;;;21.52;82.11
18697;BME280;22617;43.690;27.956;2022-09-09T21:06:10;98951.47;;;21.49;82.44
18697;BME280;22617;43.690;27.956;2022-09-09T21:11:15;98955.22;;;21.45;81.94
18697;BME280;22617;43.690;27.956;2022-09-09T21:16:19;98950.72;;;21.47;81.82
18697;BME280;22617;43.690;27.956;2022-09-09T21:21:23;98960.94;;;21.55;81.46
18697;BME280;22617;43.690;27.956;2022-09-09T21:26:28;98960.97;;;21.36;82.39
18697;BME280;22617;43.690;27.956;2022-09-09T21:31:32;98960.06;;;21.54;81.63
18697;BME280;22617;43.690;27.956;2022-09-09T21:36:35;98958.22;;;21.56;81.51
18697;BME280;22617;43.690;27.956;2022-09-09T21:41:41;98952.84;;;21.39;81.73
18697;BME280;22617;43.690;27.956;2022-09-09T21:46:44;98955.50;;;21.39;81.62
18697;BME280;22617;43.690;27.956;2022-09-09T21:51:47;98946.03;;;21.52;81.56
18697;BME280;22617;43.690;27.956;2022-09-09T21:56:53;98944.13;;;21.37;81.73
18697;BME280;22617;43.690;27.956;2022-09-09T22:01:56;98941.28;;;21.59;81.04
18697;BME280;22617;43.690;27.956;2022-09-09T22:07:00;98930.28;;;21.66;80.55
18697;BME280;22617;43.690;27.956;2022-09-09T22:12:05;98929.91;;;21.57;81.06
18697;BME280;22617;43.690;27.956;2022-09-09T22:17:09;98928.41;;;21.51;81.26
18697;BME280;22617;43.690;27.956;2022-09-09T22:22:13;98908.63;;;21.40;81.86
18697;BME280;22617;43.690;27.956;2022-09-09T22:27:18;98908.28;;;21.64;80.97
18697;BME280;22617;43.690;27.956;2022-09-09T22:32:21;98905.63;;;21.47;80.96
18697;BME280;22617;43.690;27.956;2022-09-09T22:37:24;98894.84;;;21.50;81.22
18697;BME280;22617;43.690;27.956;2022-09-09T22:42:29;98904.06;;;21.43;81.66
18697;BME280;22617;43.690;27.956;2022-09-09T22:47:33;98903.78;;;21.30;81.85
18697;BME280;22617;43.690;27.956;2022-09-09T22:52:36;98896.75;;;21.48;81.78
18697;BME280;22617;43.690;27.956;2022-09-09T22:57:41;98891.84;;;21.39;81.71
18697;BME280;22617;43.690;27.956;2022-09-09T23:02:45;98886.56;;;21.39;81.75
18697;BME280;22617;43.690;27.956;2022-09-09T23:07:50;98869.03;;;21.54;81.61
18697;BME280;22617;43.690;27.956;2022-09-09T23:12:55;98876.28;;;21.33;82.01
18697;BME280;22617;43.690;27.956;2022-09-09T23:17:59;98880.03;;;21.29;82.37
18697;BME280;22617;43.690;27.956;2022-09-09T23:23:03;98877.28;;;21.30;82.86
18697;BME280;22617;43.690;27.956;2022-09-09T23:28:07;98868.78;;;21.41;82.79
18697;BME280;22617;43.690;27.956;2022-09-09T23:33:11;98863.47;;;21.41;82.30
18697;BME280;22617;43.690;27.956;2022-09-09T23:38:15;98856.69;;;21.18;82.76
18697;BME280;22617;43.690;27.956;2022-09-09T23:43:19;98850.69;;;21.15;83.39
18697;BME280;22617;43.690;27.956;2022-09-09T23:48:25;98846.56;;;21.08;83.21
18697;BME280;22617;43.690;27.956;2022-09-09T23:53:29;98844.38;;;20.99;83.81
18697;BME280;22617;43.690;27.956;2022-09-09T23:58:34;98855.31;;;21.10;83.55
